Time;durP1;ratioP1;P1;durP2;ratioP2;P2;SDS_P1;SDS_P2;PMS_P1;PMS_P2;Temp;Humidity;BMP_temperature;BMP_pressure;BME280_temperature;BME280_humidity;BME280_pressure;Samples;Min_cycle;Max_cycle;Signal;HPM_P1;HPM_P2
2022/03/27 00:00:31;;;;;;;;;;;9.80;92.30;;;;;;4936339;29;19917;-65
2022/03/27 00:02:57;;;;;;;;;;;9.80;92.60;;;;;;4935238;29;19910;-64
2022/03/27 00:05:23;;;;;;;;;;;9.70;92.80;;;;;;4934357;29;20045;-65
2022/03/27 00:07:48;;;;;;;;;;;9.70;93.00;;;;;;4917148;29;20359;-66
2022/03/27 00:10:14;;;;;;;;;;;9.60;93.20;;;;;;4933803;29;19921;-65
2022/03/27 00:12:40;;;;;;;;;;;9.60;93.50;;;;;;4934474;29;19954;-65
2022/03/27 00:15:06;;;;;;;;;;;9.50;93.80;;;;;;4934387;29;20051;-65
2022/03/27 00:17:34;;;;;;;;;;;9.50;94.10;;;;;;4917394;29;20002;-65
2022/03/27 00:20:02;;;;;;;;;;;9.40;94.40;;;;;;4934023;29;19911;-65
2022/03/27 00:22:28;;;;;;;;;;;9.40;94.70;;;;;;4934305;29;20318;-64
2022/03/27 00:24:55;;;;;;;;;;;9.40;94.90;;;;;;4934111;29;19914;-65
2022/03/27 00:27:20;;;;;;;;;;;9.30;95.10;;;;;;4933814;29;19977;-65
2022/03/27 00:29:46;;;;;;;;;;;9.30;95.30;;;;;;4933840;29;20359;-65
2022/03/27 00:32:12;;;;;;;;;;;9.30;95.50;;;;;;4934078;29;19965;-65
2022/03/27 00:34:38;;;;;;;;;;;9.30;95.50;;;;;;4933929;29;19926;-65
2022/03/27 00:37:04;;;;;;;;;;;9.30;95.60;;;;;;4933780;29;20402;-65
2022/03/27 00:39:30;;;;;;;;;;;9.20;95.80;;;;;;4952229;29;19950;-65
2022/03/27 00:41:55;;;;;;;;;;;9.20;96.10;;;;;;4945831;29;19918;-65
2022/03/27 00:44:21;;;;;;;;;;;9.10;96.30;;;;;;4953311;29;19993;-65
2022/03/27 00:46:47;;;;;;;;;;;9.00;96.60;;;;;;4952660;28;19910;-65
2022/03/27 00:49:12;;;;;;;;;;;9.00;96.80;;;;;;4935446;29;19962;-65
2022/03/27 00:51:38;;;;;;;;;;;9.00;97.00;;;;;;4952906;29;19910;-65
2022/03/27 00:54:05;;;;;;;;;;;9.00;97.20;;;;;;4952832;29;19973;-65
2022/03/27 00:56:30;;;;;;;;;;;8.90;97.30;;;;;;4935513;29;20412;-65
2022/03/27 00:58:56;;;;;;;;;;;9.00;97.30;;;;;;4952696;29;19914;-65
2022/03/27 01:01:31;;;;;;;;;;;8.90;97.50;;;;;;4952945;28;20052;-65
2022/03/27 01:03:58;;;;;;;;;;;8.90;97.50;;;;;;4952922;29;19911;-65
2022/03/27 01:06:28;;;;;;;;;;;9.00;97.50;;;;;;4952752;29;19910;-65
2022/03/27 01:11:39;;;;;;;;;;;8.90;97.80;;;;;;4953003;29;19918;-65
2022/03/27 01:14:04;;;;;;;;;;;8.90;98.20;;;;;;4952729;29;19910;-65
2022/03/27 01:16:55;;;;;;;;;;;8.80;98.10;;;;;;4952713;29;19914;-65
2022/03/27 01:19:21;;;;;;;;;;;8.80;98.40;;;;;;4952200;29;19910;-65
2022/03/27 01:21:47;;;;;;;;;;;8.80;98.70;;;;;;4952790;29;19917;-65
2022/03/27 01:24:15;;;;;;;;;;;8.70;99.00;;;;;;4952786;29;19910;-65
2022/03/27 01:26:41;;;;;;;;;;;8.70;99.20;;;;;;4935519;29;19917;-65
2022/03/27 01:29:07;;;;;;;;;;;8.60;99.50;;;;;;4935180;29;19914;-64
2022/03/27 01:31:34;;;;;;;;;;;8.50;99.90;;;;;;4935725;29;19922;-64
2022/03/27 01:34:00;;;;;;;;;;;8.50;99.90;;;;;;4935397;29;19911;-64
2022/03/27 01:36:28;;;;;;;;;;;8.50;99.90;;;;;;4935377;29;19962;-64
2022/03/27 01:38:56;;;;;;;;;;;8.50;99.90;;;;;;4935316;29;20379;-64
2022/03/27 01:41:23;;;;;;;;;;;8.40;99.90;;;;;;4952423;29;19911;-65
2022/03/27 01:43:49;;;;;;;;;;;8.40;99.90;;;;;;4952434;29;19934;-65
2022/03/27 01:46:15;;;;;;;;;;;8.40;99.90;;;;;;4952309;29;19911;-65
2022/03/27 01:48:41;;;;;;;;;;;8.40;99.90;;;;;;4951946;29;19933;-64
2022/03/27 01:51:07;;;;;;;;;;;8.40;99.90;;;;;;4935207;29;20005;-64
2022/03/27 01:53:36;;;;;;;;;;;8.40;99.90;;;;;;4935448;29;19944;-64
2022/03/27 01:56:01;;;;;;;;;;;8.40;99.90;;;;;;4952620;29;20005;-64
2022/03/27 01:58:27;;;;;;;;;;;8.40;99.90;;;;;;4953755;28;19997;-65
2022/03/27 02:00:53;;;;;;;;;;;8.30;99.90;;;;;;4938525;29;19926;-65
2022/03/27 02:03:19;;;;;;;;;;;8.30;99.90;;;;;;4955455;29;19958;-65
2022/03/27 02:05:44;;;;;;;;;;;8.30;99.90;;;;;;4950854;29;20398;-65
2022/03/27 02:08:11;;;;;;;;;;;8.30;99.90;;;;;;4953875;29;19953;-65
2022/03/27 02:10:38;;;;;;;;;;;8.20;99.90;;;;;;4955315;29;19962;-64
2022/03/27 02:13:04;;;;;;;;;;;8.20;99.90;;;;;;4938436;29;19910;-64
2022/03/27 02:15:30;;;;;;;;;;;8.20;99.90;;;;;;4955292;29;19911;-64
2022/03/27 02:17:58;;;;;;;;;;;8.20;99.90;;;;;;4955366;29;19914;-65
2022/03/27 02:20:23;;;;;;;;;;;8.10;99.90;;;;;;4969890;28;20386;-65
2022/03/27 02:22:49;;;;;;;;;;;8.20;99.90;;;;;;4955415;29;19910;-65
2022/03/27 02:25:16;;;;;;;;;;;8.20;99.90;;;;;;4938470;29;19918;-65
2022/03/27 02:27:41;;;;;;;;;;;8.10;99.90;;;;;;4955176;29;19917;-64
2022/03/27 02:30:08;;;;;;;;;;;8.10;99.90;;;;;;4954801;29;19918;-64
2022/03/27 02:32:33;;;;;;;;;;;8.10;99.90;;;;;;4955052;29;19914;-64
2022/03/27 02:34:59;;;;;;;;;;;8.00;99.90;;;;;;4955226;29;19917;-63
2022/03/27 02:37:24;;;;;;;;;;;8.00;99.90;;;;;;4954815;29;19973;-64
2022/03/27 02:39:50;;;;;;;;;;;8.00;99.90;;;;;;4954998;29;19910;-65
2022/03/27 02:42:16;;;;;;;;;;;7.90;99.90;;;;;;4954653;29;19914;-65
2022/03/27 02:44:42;;;;;;;;;;;7.90;99.90;;;;;;4954932;29;19957;-65
2022/03/27 02:47:07;;;;;;;;;;;7.90;99.90;;;;;;4954578;29;19920;-63
2022/03/27 02:49:33;;;;;;;;;;;7.90;99.90;;;;;;4953585;29;19924;-64
2022/03/27 02:52:01;;;;;;;;;;;8.00;99.90;;;;;;4954980;28;20017;-64
2022/03/27 02:54:27;;;;;;;;;;;8.00;99.90;;;;;;4953708;29;19910;-64
2022/03/27 02:56:53;;;;;;;;;;;8.00;99.90;;;;;;4969612;23;20286;-65
2022/03/27 02:59:19;;;;;;;;;;;8.00;99.90;;;;;;4954864;28;19923;-65
2022/03/27 03:01:48;;;;;;;;;;;8.00;99.90;;;;;;4973919;28;19910;-65
2022/03/27 03:04:14;;;;;;;;;;;7.90;99.90;;;;;;4973658;28;19910;-65
2022/03/27 03:06:41;;;;;;;;;;;7.90;99.90;;;;;;4973944;28;19933;-67
2022/03/27 03:09:07;;;;;;;;;;;7.90;99.90;;;;;;4973207;28;20293;-66
2022/03/27 03:11:33;;;;;;;;;;;7.90;99.90;;;;;;4973836;28;19956;-66
2022/03/27 03:13:58;;;;;;;;;;;7.90;99.90;;;;;;4974060;28;19957;-67
2022/03/27 03:16:25;;;;;;;;;;;7.90;99.90;;;;;;4972488;28;19913;-66
2022/03/27 03:18:51;;;;;;;;;;;7.80;99.90;;;;;;4971909;28;19957;-67
2022/03/27 03:21:17;;;;;;;;;;;7.80;99.90;;;;;;4973693;28;19957;-66
2022/03/27 03:23:42;;;;;;;;;;;7.80;99.90;;;;;;4972287;28;19918;-66
2022/03/27 03:26:09;;;;;;;;;;;7.80;99.90;;;;;;4973379;28;19914;-66
2022/03/27 03:28:35;;;;;;;;;;;7.70;99.90;;;;;;4972898;28;19914;-66
2022/03/27 03:31:01;;;;;;;;;;;7.70;99.90;;;;;;4973323;28;20025;-66
2022/03/27 03:33:28;;;;;;;;;;;7.60;99.90;;;;;;4973365;28;20386;-65
2022/03/27 03:35:54;;;;;;;;;;;7.50;99.90;;;;;;4974055;28;19953;-65
2022/03/27 03:38:20;;;;;;;;;;;7.50;99.90;;;;;;4972035;28;19949;-65
2022/03/27 03:40:46;;;;;;;;;;;7.50;99.90;;;;;;4973311;28;20292;-66
2022/03/27 03:43:12;;;;;;;;;;;7.40;99.90;;;;;;4973383;28;19909;-66
2022/03/27 03:45:38;;;;;;;;;;;7.50;99.90;;;;;;4973448;28;20290;-66
2022/03/27 03:48:05;;;;;;;;;;;7.40;99.90;;;;;;4972791;28;19910;-66
2022/03/27 03:50:33;;;;;;;;;;;7.40;99.90;;;;;;4972611;28;20366;-66
2022/03/27 03:52:59;;;;;;;;;;;7.40;99.90;;;;;;4972866;28;19917;-66
2022/03/27 03:55:26;;;;;;;;;;;7.40;99.90;;;;;;4973014;28;19916;-66
2022/03/27 03:57:51;;;;;;;;;;;7.30;99.90;;;;;;4972778;28;19949;-66
2022/03/27 04:00:17;;;;;;;;;;;7.30;99.90;;;;;;4972886;28;19945;-66
2022/03/27 04:02:43;;;;;;;;;;;7.30;99.90;;;;;;4972783;28;19960;-66
2022/03/27 04:05:08;;;;;;;;;;;7.30;99.90;;;;;;4972739;28;20285;-66
2022/03/27 04:07:34;;;;;;;;;;;7.30;99.90;;;;;;4972661;28;20298;-66
2022/03/27 04:10:00;;;;;;;;;;;7.30;99.90;;;;;;4972306;28;20374;-65
2022/03/27 04:12:26;;;;;;;;;;;7.20;99.90;;;;;;4972828;28;19949;-66
2022/03/27 04:14:51;;;;;;;;;;;7.20;99.90;;;;;;4967688;28;19910;-65
2022/03/27 04:17:17;;;;;;;;;;;7.20;99.90;;;;;;4953205;29;19910;-65
2022/03/27 04:19:42;;;;;;;;;;;7.10;99.90;;;;;;4952898;29;20417;-65
2022/03/27 04:22:08;;;;;;;;;;;7.10;99.90;;;;;;4952893;29;19921;-65
2022/03/27 04:24:34;;;;;;;;;;;7.10;99.90;;;;;;4936061;29;20366;-65
2022/03/27 04:26:59;;;;;;;;;;;7.00;99.90;;;;;;4953181;29;19914;-65
2022/03/27 04:29:26;;;;;;;;;;;7.10;99.90;;;;;;4952963;29;19921;-65
2022/03/27 04:31:52;;;;;;;;;;;7.10;99.90;;;;;;4955824;28;19910;-65
2022/03/27 04:34:18;;;;;;;;;;;7.10;99.90;;;;;;4972144;28;20267;-65
2022/03/27 04:36:43;;;;;;;;;;;7.10;99.90;;;;;;4972096;28;19918;-65
2022/03/27 04:39:09;;;;;;;;;;;7.10;99.90;;;;;;4970593;28;19910;-65
2022/03/27 04:41:35;;;;;;;;;;;7.10;99.90;;;;;;4972287;28;19910;-65
2022/03/27 04:44:02;;;;;;;;;;;7.00;99.90;;;;;;4971144;28;19910;-65
2022/03/27 04:46:27;;;;;;;;;;;7.00;99.90;;;;;;4972561;28;20309;-65
2022/03/27 04:48:53;;;;;;;;;;;7.00;99.90;;;;;;4971983;28;20017;-64
2022/03/27 04:51:19;;;;;;;;;;;7.00;99.90;;;;;;4971812;28;19914;-65
2022/03/27 04:53:45;;;;;;;;;;;6.90;99.90;;;;;;4972085;28;19910;-64
2022/03/27 04:56:10;;;;;;;;;;;6.90;99.90;;;;;;4972351;28;19910;-64
2022/03/27 04:58:36;;;;;;;;;;;6.80;99.90;;;;;;4971845;28;19993;-64
2022/03/27 05:01:03;;;;;;;;;;;6.80;99.90;;;;;;4972185;28;20420;-65
2022/03/27 05:03:29;;;;;;;;;;;6.70;99.90;;;;;;4971941;28;19910;-65
2022/03/27 05:05:54;;;;;;;;;;;6.70;99.90;;;;;;4971927;28;20001;-65
2022/03/27 05:08:20;;;;;;;;;;;6.70;99.90;;;;;;4971547;28;20056;-65
2022/03/27 05:10:46;;;;;;;;;;;6.60;99.90;;;;;;4972182;28;19964;-65
2022/03/27 05:13:14;;;;;;;;;;;6.60;99.90;;;;;;4971896;28;20081;-66
2022/03/27 05:15:40;;;;;;;;;;;6.60;99.90;;;;;;4960478;28;20335;-67
2022/03/27 05:18:06;;;;;;;;;;;6.60;99.90;;;;;;4952699;29;19957;-68
2022/03/27 05:20:32;;;;;;;;;;;6.60;99.90;;;;;;4951802;29;19914;-70
2022/03/27 05:22:59;;;;;;;;;;;6.70;99.90;;;;;;4952467;29;20275;-66
2022/03/27 05:25:25;;;;;;;;;;;6.70;99.90;;;;;;4952592;29;19964;-68
2022/03/27 05:27:53;;;;;;;;;;;6.70;99.90;;;;;;4935233;29;20016;-65
2022/03/27 05:30:21;;;;;;;;;;;6.70;99.90;;;;;;4935212;29;19915;-66
2022/03/27 05:32:48;;;;;;;;;;;6.70;99.90;;;;;;4953238;28;20389;-67
2022/03/27 05:35:14;;;;;;;;;;;6.50;99.90;;;;;;4956145;29;19961;-67
2022/03/27 05:37:42;;;;;;;;;;;6.60;99.90;;;;;;4956215;29;19911;-68
2022/03/27 05:40:10;;;;;;;;;;;6.60;99.90;;;;;;4956243;29;19922;-67
2022/03/27 05:42:35;;;;;;;;;;;6.70;99.90;;;;;;4939064;29;19984;-67
2022/03/27 05:45:03;;;;;;;;;;;6.70;99.90;;;;;;4955774;29;20385;-67
2022/03/27 05:47:29;;;;;;;;;;;6.80;99.90;;;;;;4938668;29;20318;-67
2022/03/27 05:49:55;;;;;;;;;;;6.80;99.90;;;;;;4955393;29;19921;-67
2022/03/27 05:52:22;;;;;;;;;;;6.80;99.90;;;;;;4938615;29;19914;-67
2022/03/27 05:54:48;;;;;;;;;;;6.80;99.90;;;;;;4939008;29;19915;-69
2022/03/27 05:57:14;;;;;;;;;;;6.80;99.90;;;;;;4938572;29;20046;-70
2022/03/27 05:59:40;;;;;;;;;;;6.80;99.90;;;;;;4938501;29;20346;-70
2022/03/27 06:02:06;;;;;;;;;;;6.90;99.90;;;;;;4967950;28;20305;-70
2022/03/27 06:04:32;;;;;;;;;;;6.90;99.90;;;;;;4973879;28;19964;-69
2022/03/27 06:06:57;;;;;;;;;;;7.00;99.90;;;;;;4973714;28;19957;-67
2022/03/27 06:09:23;;;;;;;;;;;7.00;99.90;;;;;;4974503;28;20354;-67
2022/03/27 06:11:49;;;;;;;;;;;7.10;99.90;;;;;;4973919;28;20495;-67
2022/03/27 06:14:14;;;;;;;;;;;7.10;99.90;;;;;;4974823;28;20396;-67
2022/03/27 06:16:40;;;;;;;;;;;7.10;99.90;;;;;;4974780;28;20286;-67
2022/03/27 06:19:06;;;;;;;;;;;7.20;99.90;;;;;;4974209;28;19965;-67
2022/03/27 06:21:31;;;;;;;;;;;7.20;99.90;;;;;;4973679;28;19952;-68
2022/03/27 06:23:58;;;;;;;;;;;7.30;99.90;;;;;;4973553;28;19910;-66
2022/03/27 06:26:23;;;;;;;;;;;7.40;99.90;;;;;;4973442;28;19965;-67
2022/03/27 06:28:49;;;;;;;;;;;7.50;99.90;;;;;;4973160;28;19914;-66
2022/03/27 06:31:15;;;;;;;;;;;7.50;99.90;;;;;;4973003;28;19910;-66
2022/03/27 06:33:40;;;;;;;;;;;7.60;99.90;;;;;;4974331;28;19910;-66
2022/03/27 06:36:06;;;;;;;;;;;7.70;99.90;;;;;;4974458;28;19917;-67
2022/03/27 06:38:31;;;;;;;;;;;7.80;99.90;;;;;;4972231;28;20433;-67
2022/03/27 06:40:57;;;;;;;;;;;7.80;99.90;;;;;;4974058;28;19914;-66
2022/03/27 06:43:23;;;;;;;;;;;7.80;99.90;;;;;;4973226;28;19914;-66
2022/03/27 06:45:49;;;;;;;;;;;7.90;99.90;;;;;;4957009;28;19914;-67
2022/03/27 06:48:15;;;;;;;;;;;8.00;99.90;;;;;;4973951;28;20293;-71
2022/03/27 06:50:59;;;;;;;;;;;8.00;99.90;;;;;;4974441;28;19914;-67
2022/03/27 06:53:45;;;;;;;;;;;8.10;99.90;;;;;;4972505;28;19910;-68
2022/03/27 06:56:11;;;;;;;;;;;8.20;99.90;;;;;;4972987;28;20286;-66
2022/03/27 06:58:36;;;;;;;;;;;8.30;99.90;;;;;;4956194;28;19914;-67
2022/03/27 07:03:47;;;;;;;;;;;8.60;99.90;;;;;;4973990;28;19910;-66
2022/03/27 07:06:16;;;;;;;;;;;8.70;99.90;;;;;;4974011;28;20269;-66
2022/03/27 07:08:42;;;;;;;;;;;8.80;99.90;;;;;;4973280;28;19924;-67
2022/03/27 07:11:08;;;;;;;;;;;8.90;99.90;;;;;;4956467;28;20005;-67
2022/03/27 07:13:34;;;;;;;;;;;9.00;99.90;;;;;;4973798;28;20342;-65
2022/03/27 07:16:00;;;;;;;;;;;9.10;99.90;;;;;;4972788;28;19933;-65
2022/03/27 07:18:25;;;;;;;;;;;9.20;99.90;;;;;;4956088;28;20010;-65
2022/03/27 07:20:51;;;;;;;;;;;9.30;99.90;;;;;;4973664;28;19910;-65
2022/03/27 07:23:19;;;;;;;;;;;9.50;99.90;;;;;;4972286;28;19913;-65
2022/03/27 07:25:47;;;;;;;;;;;9.60;99.90;;;;;;4971903;28;19910;-66
2022/03/27 07:28:15;;;;;;;;;;;9.80;99.90;;;;;;4973647;28;19921;-66
2022/03/27 07:30:41;;;;;;;;;;;9.90;99.90;;;;;;4972310;28;20300;-65
2022/03/27 07:33:07;;;;;;;;;;;10.10;99.90;;;;;;4972179;28;19932;-66
2022/03/27 07:35:34;;;;;;;;;;;10.20;99.90;;;;;;4972194;28;20306;-67
2022/03/27 07:38:00;;;;;;;;;;;10.30;99.90;;;;;;4972112;28;19910;-67
2022/03/27 07:40:27;;;;;;;;;;;10.40;99.90;;;;;;4973168;28;19917;-66
2022/03/27 07:42:57;;;;;;;;;;;10.60;99.90;;;;;;4955739;28;19969;-62
2022/03/27 07:45:25;;;;;;;;;;;10.80;99.90;;;;;;4955697;28;19995;-60
2022/03/27 07:47:53;;;;;;;;;;;11.00;99.90;;;;;;4972979;28;20277;-60
2022/03/27 07:50:19;;;;;;;;;;;11.10;99.90;;;;;;4972651;28;20380;-60
2022/03/27 07:52:46;;;;;;;;;;;11.30;99.90;;;;;;4972795;28;20279;-59
2022/03/27 07:55:17;;;;;;;;;;;11.40;99.90;;;;;;4972113;28;19933;-61
2022/03/27 07:57:46;;;;;;;;;;;11.60;99.90;;;;;;4971565;28;19929;-60
2022/03/27 08:00:14;;;;;;;;;;;11.70;99.90;;;;;;4971580;28;19932;-59
2022/03/27 08:02:42;;;;;;;;;;;11.90;99.90;;;;;;4971695;28;19914;-59
2022/03/27 08:05:09;;;;;;;;;;;12.10;99.90;;;;;;4972888;28;19910;-60
2022/03/27 08:07:35;;;;;;;;;;;12.20;99.90;;;;;;4954915;28;19921;-58
2022/03/27 08:10:01;;;;;;;;;;;12.30;99.90;;;;;;4971059;28;19961;-58
2022/03/27 08:12:27;;;;;;;;;;;12.40;99.90;;;;;;4955339;28;19910;-64
2022/03/27 08:14:53;;;;;;;;;;;12.60;99.90;;;;;;4971301;28;19976;-64
2022/03/27 08:17:21;;;;;;;;;;;12.60;99.90;;;;;;4971150;28;19914;-66
2022/03/27 08:19:48;;;;;;;;;;;12.70;99.90;;;;;;4954596;28;20297;-68
2022/03/27 08:22:14;;;;;;;;;;;12.80;99.90;;;;;;4972487;28;19914;-64
2022/03/27 08:24:40;;;;;;;;;;;12.90;99.90;;;;;;4971174;28;19910;-66
2022/03/27 08:27:07;;;;;;;;;;;13.00;99.90;;;;;;4955078;28;19917;-63
2022/03/27 08:29:35;;;;;;;;;;;13.10;99.90;;;;;;4972150;28;19922;-65
2022/03/27 08:32:03;;;;;;;;;;;13.20;99.90;;;;;;4971141;28;19910;-64
2022/03/27 08:34:30;;;;;;;;;;;13.30;99.90;;;;;;4972004;28;20318;-66
2022/03/27 08:36:57;;;;;;;;;;;13.40;99.20;;;;;;4913666;28;19921;-65
2022/03/27 08:39:23;;;;;;;;;;;13.50;99.00;;;;;;4955092;28;20016;-65
2022/03/27 08:41:51;;;;;;;;;;;13.70;98.60;;;;;;4970902;28;19910;-65
2022/03/27 08:44:18;;;;;;;;;;;13.90;99.90;;;;;;4954511;28;19914;-64
2022/03/27 08:46:45;;;;;;;;;;;14.00;98.40;;;;;;4970348;28;19910;-65
2022/03/27 08:49:47;;;;;;;;;;;14.00;98.00;;;;;;4967772;28;20021;-66
2022/03/27 08:52:21;;;;;;;;;;;14.10;97.50;;;;;;4970705;28;20013;-67
2022/03/27 08:55:15;;;;;;;;;;;14.30;97.50;;;;;;4971676;28;20364;-66
2022/03/27 08:57:57;;;;;;;;;;;14.40;97.20;;;;;;4977443;23;19958;-64
2022/03/27 09:00:26;;;;;;;;;;;14.50;96.90;;;;;;4946586;29;20390;-65
2022/03/27 09:02:52;;;;;;;;;;;14.70;96.70;;;;;;4946465;29;19997;-64
2022/03/27 09:05:20;;;;;;;;;;;14.80;96.10;;;;;;4952733;28;20024;-64
2022/03/27 09:07:46;;;;;;;;;;;14.90;95.90;;;;;;4954614;28;19977;-64
2022/03/27 09:10:12;;;;;;;;;;;15.20;95.90;;;;;;4970853;28;19914;-63
2022/03/27 09:12:38;;;;;;;;;;;15.20;95.20;;;;;;4971216;28;19918;-63
2022/03/27 09:15:08;;;;;;;;;;;15.40;95.20;;;;;;4956575;28;19949;-64
2022/03/27 09:18:04;;;;;;;;;;;15.50;95.00;;;;;;4957094;28;19945;-63
2022/03/27 09:20:31;;;;;;;;;;;15.80;95.00;;;;;;4945991;29;19914;-63
2022/03/27 09:23:07;;;;;;;;;;;15.80;94.40;;;;;;4956068;29;20437;-64
2022/03/27 09:25:46;;;;;;;;;;;16.00;94.10;;;;;;4939549;29;19911;-64
2022/03/27 09:28:12;;;;;;;;;;;16.20;94.00;;;;;;4955937;29;20379;-64
2022/03/27 09:30:38;;;;;;;;;;;16.20;93.70;;;;;;4955733;29;19922;-64
2022/03/27 09:33:03;;;;;;;;;;;16.30;93.80;;;;;;4955876;29;19917;-64
2022/03/27 09:35:29;;;;;;;;;;;16.50;93.40;;;;;;4955813;29;19910;-65
2022/03/27 09:37:55;;;;;;;;;;;16.60;93.40;;;;;;4956019;29;19974;-65
2022/03/27 09:40:20;;;;;;;;;;;16.70;92.90;;;;;;4956075;28;19916;-65
2022/03/27 09:42:47;;;;;;;;;;;16.80;92.30;;;;;;4939042;29;19942;-65
2022/03/27 09:45:23;;;;;;;;;;;16.80;92.40;;;;;;4955774;29;19985;-65
2022/03/27 09:47:50;;;;;;;;;;;16.90;92.30;;;;;;4938650;29;19911;-64
2022/03/27 09:50:32;;;;;;;;;;;17.00;91.30;;;;;;4955452;29;19964;-65
2022/03/27 09:53:35;;;;;;;;;;;17.00;91.50;;;;;;4955464;29;19914;-64
2022/03/27 09:56:01;;;;;;;;;;;17.00;91.60;;;;;;4858565;29;19918;-64
2022/03/27 09:58:37;;;;;;;;;;;17.10;91.60;;;;;;4936097;29;19915;-64
2022/03/27 10:01:15;;;;;;;;;;;17.20;91.10;;;;;;4938595;29;19921;-65
2022/03/27 10:04:14;;;;;;;;;;;17.30;91.10;;;;;;4939145;29;19911;-64
2022/03/27 10:06:41;;;;;;;;;;;17.40;91.50;;;;;;4955732;29;19910;-64
2022/03/27 10:09:13;;;;;;;;;;;17.70;90.70;;;;;;4955089;28;19918;-64
2022/03/27 10:11:41;;;;;;;;;;;17.80;90.50;;;;;;4938327;29;19910;-64
2022/03/27 10:14:08;;;;;;;;;;;17.90;90.00;;;;;;4955266;29;19911;-64
2022/03/27 10:16:37;;;;;;;;;;;18.00;89.80;;;;;;4937943;29;19997;-65
2022/03/27 10:19:06;;;;;;;;;;;18.20;89.50;;;;;;4953994;28;19911;-65
2022/03/27 10:21:32;;;;;;;;;;;18.30;88.80;;;;;;4938340;29;19958;-64
2022/03/27 10:24:15;;;;;;;;;;;18.00;89.00;;;;;;4938122;29;19922;-64
2022/03/27 10:26:43;;;;;;;;;;;18.00;88.80;;;;;;4955022;29;19957;-64
2022/03/27 10:29:10;;;;;;;;;;;18.30;88.50;;;;;;4937721;29;19919;-64
2022/03/27 10:31:36;;;;;;;;;;;18.20;87.60;;;;;;4955015;29;20374;-64
2022/03/27 10:34:05;;;;;;;;;;;18.50;87.50;;;;;;4952891;29;20305;-64
2022/03/27 10:36:45;;;;;;;;;;;18.60;86.40;;;;;;4954814;29;19917;-64
2022/03/27 10:39:25;;;;;;;;;;;18.80;85.70;;;;;;4939028;29;19918;-64
2022/03/27 10:42:03;;;;;;;;;;;18.90;85.90;;;;;;4954895;29;19957;-64
2022/03/27 10:44:46;;;;;;;;;;;19.00;84.30;;;;;;4954293;29;19925;-63
2022/03/27 10:47:20;;;;;;;;;;;19.00;84.40;;;;;;4954355;29;20278;-64
2022/03/27 10:50:01;;;;;;;;;;;19.00;85.10;;;;;;4937758;29;20302;-64
2022/03/27 10:52:27;;;;;;;;;;;19.40;83.40;;;;;;4954048;29;19918;-65
2022/03/27 10:55:02;;;;;;;;;;;19.60;82.80;;;;;;4933140;29;19918;-64
2022/03/27 10:57:30;;;;;;;;;;;19.70;82.10;;;;;;4954276;29;19921;-65
2022/03/27 10:59:56;;;;;;;;;;;20.00;82.60;;;;;;4937315;29;19910;-65
2022/03/27 11:02:42;;;;;;;;;;;20.00;82.40;;;;;;4936998;29;19958;-59
2022/03/27 11:05:07;;;;;;;;;;;20.30;80.40;;;;;;4954514;28;19910;-58
2022/03/27 11:07:33;;;;;;;;;;;20.30;81.00;;;;;;4954164;29;19937;-58
2022/03/27 11:09:58;;;;;;;;;;;20.60;81.80;;;;;;4953911;29;19918;-59
2022/03/27 11:12:24;;;;;;;;;;;20.60;79.50;;;;;;4954173;29;19992;-59
2022/03/27 11:14:53;;;;;;;;;;;20.40;79.20;;;;;;4954207;29;19918;-58
2022/03/27 11:17:43;;;;;;;;;;;20.20;80.20;;;;;;4954320;29;20290;-60
2022/03/27 11:20:10;;;;;;;;;;;20.00;80.00;;;;;;4937958;29;19914;-58
2022/03/27 11:22:56;;;;;;;;;;;20.30;78.00;;;;;;4954080;29;19911;-59
2022/03/27 11:25:38;;;;;;;;;;;20.10;78.80;;;;;;4953930;29;19911;-60
2022/03/27 11:28:03;;;;;;;;;;;20.40;78.20;;;;;;4936830;29;20271;-60
2022/03/27 11:30:30;;;;;;;;;;;20.50;76.60;;;;;;4953468;28;19938;-59
2022/03/27 11:33:24;;;;;;;;;;;20.50;77.00;;;;;;4936811;29;19941;-60
2022/03/27 11:36:05;;;;;;;;;;;20.90;76.40;;;;;;4953972;29;19911;-59
2022/03/27 11:38:52;;;;;;;;;;;20.80;76.10;;;;;;4953457;29;20378;-58
2022/03/27 11:41:42;;;;;;;;;;;21.50;75.10;;;;;;4954011;29;19921;-60
2022/03/27 11:45:06;;;;;;;;;;;21.70;75.30;;;;;;4936674;29;20465;-57
2022/03/27 11:47:11;;;;;;;;;;;22.10;74.50;;;;;;4953465;29;19916;-58
2022/03/27 11:49:39;;;;;;;;;;;22.50;73.10;;;;;;4953130;29;19914;-56
2022/03/27 11:52:06;;;;;;;;;;;21.30;71.90;;;;;;4953377;29;19983;-57
2022/03/27 11:54:32;;;;;;;;;;;20.80;73.30;;;;;;4953163;29;19921;-56
2022/03/27 11:56:59;;;;;;;;;;;21.50;74.30;;;;;;4953499;29;19944;-58
2022/03/27 11:59:26;;;;;;;;;;;22.10;72.20;;;;;;4935724;29;19959;-57
2022/03/27 12:01:53;;;;;;;;;;;21.90;72.20;;;;;;4936233;29;19910;-59
2022/03/27 12:04:19;;;;;;;;;;;22.00;71.70;;;;;;4953385;29;20263;-58
2022/03/27 12:06:45;;;;;;;;;;;22.70;70.50;;;;;;4936024;29;20385;-58
2022/03/27 12:09:28;;;;;;;;;;;22.80;69.80;;;;;;4935923;29;20024;-58
2022/03/27 12:12:11;;;;;;;;;;;22.40;70.90;;;;;;4953573;28;19910;-58
2022/03/27 12:14:50;;;;;;;;;;;22.60;69.00;;;;;;4953209;29;19914;-58
2022/03/27 12:17:16;;;;;;;;;;;22.30;69.20;;;;;;4952791;29;19917;-62
2022/03/27 12:19:57;;;;;;;;;;;22.40;70.40;;;;;;4919415;29;19910;-63
2022/03/27 12:22:37;;;;;;;;;;;23.20;69.80;;;;;;4952978;29;19968;-59
2022/03/27 12:25:11;;;;;;;;;;;23.10;67.90;;;;;;4952963;29;19914;-59
2022/03/27 12:30:32;;;;;;;;;;;23.80;65.10;;;;;;4938177;29;19921;-61
2022/03/27 12:33:00;;;;;;;;;;;23.50;66.20;;;;;;4953004;29;19914;-61
2022/03/27 12:35:26;;;;;;;;;;;24.90;64.00;;;;;;4936132;29;19910;-62
2022/03/27 12:37:51;;;;;;;;;;;24.30;63.70;;;;;;4952766;29;19957;-63
2022/03/27 12:40:17;;;;;;;;;;;25.70;62.60;;;;;;4952377;29;19993;-63
2022/03/27 12:42:46;;;;;;;;;;;24.30;63.90;;;;;;4934928;29;19937;-63
2022/03/27 12:45:14;;;;;;;;;;;24.40;64.70;;;;;;4935940;29;19937;-61
2022/03/27 12:47:58;;;;;;;;;;;24.40;63.60;;;;;;4952501;29;20285;-62
2022/03/27 12:50:35;;;;;;;;;;;24.10;63.50;;;;;;4952333;29;19937;-63
2022/03/27 12:53:11;;;;;;;;;;;25.20;62.50;;;;;;4935374;29;19914;-63
2022/03/27 12:55:46;;;;;;;;;;;25.00;62.00;;;;;;4952390;29;20382;-62
2022/03/27 12:58:14;;;;;;;;;;;23.90;63.00;;;;;;4952235;29;19914;-61
2022/03/27 13:00:41;;;;;;;;;;;23.90;63.60;;;;;;4952832;29;19910;-62
2022/03/27 13:03:22;;;;;;;;;;;23.90;62.70;;;;;;4952356;29;19914;-62
2022/03/27 13:05:53;;;;;;;;;;;23.50;65.20;;;;;;4952658;29;19997;-61
2022/03/27 13:08:56;;;;;;;;;;;23.70;65.00;;;;;;4952256;29;19915;-61
2022/03/27 13:11:21;;;;;;;;;;;24.00;63.30;;;;;;4952337;29;19960;-59
2022/03/27 13:13:56;;;;;;;;;;;23.60;63.20;;;;;;4935396;29;19983;-58
2022/03/27 13:16:31;;;;;;;;;;;24.00;62.90;;;;;;4952561;29;20009;-60
2022/03/27 13:19:08;;;;;;;;;;;23.60;63.60;;;;;;4952092;29;20279;-60
2022/03/27 13:21:36;;;;;;;;;;;23.00;63.90;;;;;;4952660;29;19910;-59
2022/03/27 13:24:05;;;;;;;;;;;24.10;62.80;;;;;;4952416;29;19942;-60
2022/03/27 13:26:33;;;;;;;;;;;24.90;61.80;;;;;;4952270;29;19914;-61
2022/03/27 13:28:59;;;;;;;;;;;24.80;61.20;;;;;;4934902;29;19915;-61
2022/03/27 13:31:26;;;;;;;;;;;24.90;61.90;;;;;;4935080;29;19925;-61
2022/03/27 13:33:52;;;;;;;;;;;24.90;60.80;;;;;;4952319;29;20282;-61
2022/03/27 13:36:18;;;;;;;;;;;24.80;60.10;;;;;;4934912;29;19921;-61
2022/03/27 13:38:44;;;;;;;;;;;25.40;60.80;;;;;;4951899;29;20013;-61
2022/03/27 13:43:55;;;;;;;;;;;26.00;58.90;;;;;;4952431;29;19917;-61
2022/03/27 13:46:20;;;;;;;;;;;26.60;57.80;;;;;;4952125;29;19910;-61
2022/03/27 13:48:46;;;;;;;;;;;26.00;58.90;;;;;;4951851;29;19929;-62
2022/03/27 13:51:12;;;;;;;;;;;26.90;57.70;;;;;;4952266;29;20310;-61
2022/03/27 13:53:38;;;;;;;;;;;26.20;57.60;;;;;;4952886;28;19918;-61
2022/03/27 13:56:04;;;;;;;;;;;26.00;58.60;;;;;;4922943;29;19977;-59
2022/03/27 13:58:31;;;;;;;;;;;27.10;57.50;;;;;;4955285;29;20018;-60
2022/03/27 14:00:57;;;;;;;;;;;26.80;57.50;;;;;;4955620;29;20286;-60
2022/03/27 14:03:24;;;;;;;;;;;26.10;56.50;;;;;;4938477;29;19988;-61
2022/03/27 14:05:51;;;;;;;;;;;26.80;57.50;;;;;;4938923;29;19918;-60
2022/03/27 14:08:17;;;;;;;;;;;25.60;57.20;;;;;;4955421;29;19921;-60
2022/03/27 14:10:43;;;;;;;;;;;25.70;59.00;;;;;;4955648;29;19925;-60
2022/03/27 14:13:08;;;;;;;;;;;24.00;58.90;;;;;;4938373;29;19910;-59
2022/03/27 14:15:34;;;;;;;;;;;24.30;59.80;;;;;;4955482;29;19910;-60
2022/03/27 14:18:02;;;;;;;;;;;24.90;59.10;;;;;;4937951;29;20001;-59
2022/03/27 14:20:28;;;;;;;;;;;25.30;59.20;;;;;;4955361;29;19914;-61
2022/03/27 14:22:54;;;;;;;;;;;24.80;59.50;;;;;;4938099;29;20013;-61
2022/03/27 14:25:19;;;;;;;;;;;26.20;58.40;;;;;;4955415;29;19933;-59
2022/03/27 14:27:46;;;;;;;;;;;25.00;58.10;;;;;;4954085;29;19965;-59
2022/03/27 14:30:14;;;;;;;;;;;25.70;58.10;;;;;;4955062;29;19914;-59
2022/03/27 14:32:44;;;;;;;;;;;24.80;58.70;;;;;;4955295;29;19910;-59
2022/03/27 14:35:14;;;;;;;;;;;25.00;57.80;;;;;;4955272;29;19917;-59
2022/03/27 14:37:40;;;;;;;;;;;25.90;57.80;;;;;;4938106;29;19911;-59
2022/03/27 14:40:09;;;;;;;;;;;25.40;59.50;;;;;;4954495;29;19997;-61
2022/03/27 14:42:35;;;;;;;;;;;23.90;59.30;;;;;;4934420;29;19953;-61